Time;durP1;ratioP1;P1;durP2;ratioP2;P2;SDS_P1;SDS_P2;PMS_P1;PMS_P2;Temp;Humidity;BMP_temperature;BMP_pressure;BME280_temperature;BME280_humidity;BME280_pressure;Samples;Min_cycle;Max_cycle;Signal;HPM_P1;HPM_P2
2023/03/05 00:02:01;;;;;;;6.50;1.20;;;3.80;99.90;;;;;;5078701;28;20036;-81
2023/03/05 00:04:48;;;;;;;9.88;1.33;;;3.90;99.90;;;;;;5047362;28;20078;-80
2023/03/05 00:07:34;;;;;;;5.30;1.08;;;4.00;99.90;;;;;;5061694;28;20669;-81
2023/03/05 00:10:18;;;;;;;;;;;;;;;;;;;;;
2023/03/05 00:13:00;;;;;;;3.83;0.77;;;3.80;99.90;;;;;;5064902;28;20124;-81
2023/03/05 00:15:41;;;;;;;5.38;1.02;;;3.90;99.90;;;;;;5097723;28;21064;-81
2023/03/05 00:21:36;;;;;;;2.35;0.55;;;3.90;99.90;;;;;;5096155;27;20096;-81
2023/03/05 00:24:18;;;;;;;6.03;1.17;;;3.80;99.90;;;;;;5096363;27;20032;-81
2023/03/05 00:26:52;;;;;;;7.63;1.00;;;4.50;99.90;;;;;;5092109;27;20035;-81
2023/03/05 00:29:27;;;;;;;8.90;1.27;;;4.30;99.90;;;;;;5113987;27;20044;-81
2023/03/05 00:32:33;;;;;;;4.75;0.85;;;4.40;99.90;;;;;;5132215;27;20437;-81
2023/03/05 00:35:13;;;;;;;;;;;3.80;99.90;;;;;;5115466;27;20516;-81
2023/03/05 00:38:05;;;;;;;5.18;0.98;;;3.90;99.90;;;;;;5083789;27;19919;-81
2023/03/05 00:40:57;;;;;;;;;;;3.90;99.90;;;;;;5118420;27;20040;-81
2023/03/05 00:43:48;;;;;;;3.83;0.77;;;3.90;99.90;;;;;;5085252;27;19916;-81
2023/03/05 00:46:46;;;;;;;7.20;1.65;;;3.70;99.90;;;;;;5119027;27;20112;-81
2023/03/05 00:50:00;;;;;;;;;;;;;;;;;;;;;
2023/03/05 00:55:54;;;;;;;;;;;;;;;;;;;;;
2023/03/05 00:58:25;;;;;;;5.97;1.02;;;3.90;99.90;;;;;;5053435;27;20701;-81
2023/03/05 01:01:24;;;;;;;5.53;0.60;;;3.90;99.90;;;;;;5077017;27;20058;-81
2023/03/05 01:03:59;;;;;;;4.78;1.08;;;4.10;99.90;;;;;;5085545;27;20047;-81
2023/03/05 01:06:59;;;;;;;5.30;0.75;;;4.10;99.90;;;;;;5107420;27;20594;-81
2023/03/05 01:12:48;;;;;;;5.82;0.80;;;4.20;99.90;;;;;;5083334;28;20130;-81
2023/03/05 01:15:58;;;;;;;5.47;0.73;;;3.20;99.90;;;;;;5106604;27;20165;-81
2023/03/05 01:18:52;;;;;;;4.82;0.75;;;3.80;99.90;;;;;;5080921;27;21719;-81
2023/03/05 01:21:43;;;;;;;4.72;0.80;;;3.70;99.90;;;;;;5087222;27;20076;-81
2023/03/05 01:24:36;;;;;;;4.97;0.82;;;3.70;99.90;;;;;;5083679;27;20047;-81
2023/03/05 01:27:42;;;;;;;8.32;0.90;;;3.80;99.90;;;;;;5105565;27;20047;-80
2023/03/05 01:30:36;;;;;;;3.35;0.60;;;3.90;99.90;;;;;;5076746;27;20067;-81
2023/03/05 01:33:36;;;;;;;;;;;;;;;;;;;;;
2023/03/05 01:40:40;;;;;;;5.40;0.90;;;3.60;99.90;;;;;;5119188;27;20468;-81
2023/03/05 01:43:52;;;;;;;8.27;1.13;;;3.60;99.90;;;;;;5056739;28;20056;-81
2023/03/05 01:46:51;;;;;;;;;;;;;;;;;;;;;
2023/03/05 01:49:59;;;;;;;;;;;;;;;;;;;;;
2023/03/05 01:52:56;;;;;;;5.20;0.95;;;3.60;99.90;;;;;;5087974;27;20051;-81
2023/03/05 01:55:55;;;;;;;8.38;1.00;;;3.90;99.90;;;;;;5059059;27;20043;-81
2023/03/05 01:59:14;;;;;;;5.13;0.70;;;3.50;99.90;;;;;;5104171;27;20706;-81
2023/03/05 02:02:10;;;;;;;;;;;;;;;;;;;;;
2023/03/05 02:05:01;;;;;;;;;;;;;;;;;;;;;
2023/03/05 02:08:03;;;;;;;;;;;;;;;;;;;;;
2023/03/05 02:11:20;;;;;;;5.82;0.65;;;3.40;99.90;;;;;;5085089;27;20055;-81
2023/03/05 02:14:41;;;;;;;3.53;0.65;;;3.70;99.90;;;;;;5043458;27;20072;-81
2023/03/05 02:22:26;;;;;;;;;;;;;;;;;;;;;
2023/03/05 02:29:12;;;;;;;5.45;0.70;;;3.50;99.90;;;;;;5070595;27;20076;-81
2023/03/05 02:36:15;;;;;;;;;;;;;;;;;;;;;
2023/03/05 02:43:20;;;;;;;7.45;0.60;;;3.40;99.90;;;;;;5063925;27;20062;-81
2023/03/05 02:46:49;;;;;;;5.25;1.23;;;3.30;99.90;;;;;;5090295;27;20752;-81
2023/03/05 02:50:06;;;;;;;;;;;;;;;;;;;;;
2023/03/05 02:57:19;;;;;;;;;;;;;;;;;;;;;
2023/03/05 03:00:33;;;;;;;;;;;;;;;;;;;;;
2023/03/05 03:11:16;;;;;;;10.50;1.55;;;3.10;99.90;;;;;;5085158;27;20035;-82
2023/03/05 03:15:10;;;;;;;;;;;;;;;;;;;;;
2023/03/05 03:30:03;;;;;;;5.78;0.80;;;3.80;99.90;;;;;;5089907;27;20040;-83
2023/03/05 03:40:46;;;;;;;6.53;0.88;;;3.70;99.90;;;;;;5095843;28;20040;-82
2023/03/05 03:44:19;;;;;;;6.53;0.77;;;3.20;99.90;;;;;;5089440;28;20092;-82
2023/03/05 03:55:21;;;;;;;4.95;0.75;;;3.40;99.90;;;;;;4972339;28;22121;-82
2023/03/05 03:58:57;;;;;;;7.00;0.60;;;3.40;99.90;;;;;;4947805;28;20057;-82
2023/03/05 04:03:10;;;;;;;;;;;;;;;;;;;;;
2023/03/05 04:14:45;;;;;;;4.70;0.38;;;3.30;99.90;;;;;;4877686;29;20072;-83
2023/03/05 04:26:00;;;;;;;;;;;;;;;;;;;;;
2023/03/05 05:02:10;;;;;;;5.85;0.60;;;3.30;99.90;;;;;;5052797;28;20423;-82
2023/03/05 05:10:06;;;;;;;3.42;0.40;;;3.50;99.90;;;;;;4956042;28;20073;-83
2023/03/05 05:13:47;;;;;;;3.58;0.57;;;3.30;99.90;;;;;;4977395;28;20702;-83
2023/03/05 05:17:33;;;;;;;2.60;0.20;;;3.30;99.90;;;;;;4943321;28;20038;-83
2023/03/05 05:28:50;;;;;;;5.65;0.50;;;3.30;99.90;;;;;;4851273;29;20106;-82
2023/03/05 06:59:34;;;;;;;6.40;0.88;;;3.20;99.90;;;;;;4838785;29;20072;-82
2023/03/05 07:52:06;;;;;;;6.50;0.80;;;4.50;99.90;;;;;;4824789;29;20174;-80
2023/03/05 07:54:36;;;;;;;6.05;0.77;;;4.80;99.90;;;;;;4925590;28;20053;-80
2023/03/05 08:12:22;;;;;;;4.63;0.75;;;4.80;99.90;;;;;;5000310;28;20064;-80
2023/03/05 08:23:03;;;;;;;3.10;0.40;;;5.10;99.90;;;;;;4994195;28;20041;-79
2023/03/05 08:25:37;;;;;;;5.00;1.35;;;5.20;99.90;;;;;;4980823;28;20058;-80
2023/03/05 08:32:27;;;;;;;9.40;1.15;;;5.50;99.90;;;;;;4979532;28;20088;-82
2023/03/05 08:35:33;;;;;;;7.90;0.75;;;5.10;99.90;;;;;;4961113;28;20136;-81
2023/03/05 08:37:59;;;;;;;2.83;0.50;;;5.80;99.90;;;;;;4972368;28;21335;-81
2023/03/05 08:40:32;;;;;;;6.70;0.98;;;6.40;99.90;;;;;;5008716;28;20048;-82
2023/03/05 08:43:01;;;;;;;5.45;0.43;;;6.10;99.90;;;;;;5026219;28;20578;-81
2023/03/05 08:45:27;;;;;;;6.63;0.88;;;5.80;99.90;;;;;;5027169;28;20048;-81
2023/03/05 08:47:55;;;;;;;5.50;1.17;;;5.90;99.90;;;;;;5017777;28;20048;-80
2023/03/05 08:50:24;;;;;;;6.38;0.60;;;6.20;99.90;;;;;;5024185;28;20036;-80
2023/03/05 08:52:50;;;;;;;6.05;1.30;;;6.20;99.90;;;;;;5021850;28;20068;-79
2023/03/05 08:55:16;;;;;;;7.22;0.55;;;6.30;99.90;;;;;;5038665;28;20080;-80
2023/03/05 08:57:42;;;;;;;5.57;0.68;;;6.10;99.90;;;;;;5012376;28;20033;-80
2023/03/05 09:00:09;;;;;;;2.20;0.40;;;6.90;99.90;;;;;;5028626;28;20055;-80
2023/03/05 09:02:38;;;;;;;4.30;0.70;;;6.30;99.90;;;;;;5013466;28;20050;-83
2023/03/05 09:05:11;;;;;;;6.97;0.88;;;6.60;99.90;;;;;;5020010;28;20045;-81
2023/03/05 09:07:36;;;;;;;5.38;1.02;;;6.50;99.90;;;;;;5009788;28;20078;-81
2023/03/05 09:10:04;;;;;;;5.38;0.82;;;6.40;99.90;;;;;;5016748;28;20041;-82
2023/03/05 09:12:32;;;;;;;8.07;0.65;;;6.60;99.90;;;;;;5003382;28;20061;-81
2023/03/05 09:14:58;;;;;;;9.00;1.23;;;6.90;99.90;;;;;;5010846;28;20094;-79
2023/03/05 09:17:24;;;;;;;4.35;0.50;;;7.20;99.90;;;;;;5028067;28;20036;-80
2023/03/05 09:20:20;;;;;;;2.83;0.45;;;6.90;99.90;;;;;;5025039;28;20513;-84
2023/03/05 09:23:15;;;;;;;3.33;0.40;;;7.00;99.90;;;;;;5019114;28;20041;-82
2023/03/05 09:25:42;;;;;;;7.20;0.60;;;7.00;99.90;;;;;;5014609;28;20053;-81
2023/03/05 09:28:22;;;;;;;9.18;0.93;;;7.70;99.90;;;;;;5010127;28;20045;-82
2023/03/05 09:30:51;;;;;;;3.95;0.77;;;7.20;99.90;;;;;;5004636;28;20052;-81
2023/03/05 09:33:17;;;;;;;3.42;0.50;;;7.20;99.90;;;;;;5020432;28;20041;-79
2023/03/05 09:35:43;;;;;;;6.13;1.65;;;7.30;99.90;;;;;;5017290;28;20080;-80
2023/03/05 09:38:14;;;;;;;8.20;0.60;;;7.40;99.90;;;;;;5023288;28;20404;-83
2023/03/05 09:41:12;;;;;;;6.90;0.75;;;7.50;99.90;;;;;;5022464;28;20056;-81
2023/03/05 09:44:20;;;;;;;6.18;1.10;;;7.60;99.90;;;;;;5023860;28;20041;-80
2023/03/05 09:47:01;;;;;;;10.00;0.60;;;7.70;99.90;;;;;;5014816;28;20055;-80
2023/03/05 09:49:51;;;;;;;8.48;0.65;;;7.90;99.90;;;;;;5028688;28;20588;-80
2023/03/05 09:52:37;;;;;;;5.63;0.70;;;7.90;99.90;;;;;;5029763;28;20142;-80
2023/03/05 09:55:10;;;;;;;8.15;1.40;;;8.00;99.90;;;;;;5031762;28;20044;-81
2023/03/05 09:57:42;;;;;;;4.60;0.55;;;8.20;99.90;;;;;;5030017;28;20099;-81
2023/03/05 10:00:20;;;;;;;7.43;1.02;;;8.60;99.90;;;;;;5037197;28;20041;-83
2023/03/05 10:02:57;;;;;;;5.43;1.00;;;8.20;99.90;;;;;;5008870;28;20040;-81
2023/03/05 10:06:00;;;;;;;11.65;0.90;;;9.00;99.90;;;;;;5039955;28;20113;-81
2023/03/05 10:08:41;;;;;;;3.60;0.68;;;8.50;99.90;;;;;;5013591;28;20048;-78
2023/03/05 10:11:19;;;;;;;3.00;1.00;;;9.10;99.90;;;;;;5021352;28;20052;-79
2023/03/05 10:13:45;;;;;;;4.88;0.68;;;8.50;99.90;;;;;;5018996;28;20044;-81
2023/03/05 10:16:41;;;;;;;3.42;0.40;;;8.50;99.90;;;;;;5039051;28;20037;-81
2023/03/05 10:19:25;;;;;;;2.95;0.40;;;8.40;99.90;;;;;;5039634;28;20128;-81
2023/03/05 10:22:14;;;;;;;6.43;1.70;;;8.40;99.90;;;;;;5024506;28;20907;-81
2023/03/05 10:24:59;;;;;;;4.60;0.50;;;8.50;99.90;;;;;;5020133;28;20048;-81
2023/03/05 10:27:25;;;;;;;4.45;0.30;;;8.90;99.90;;;;;;5030050;28;20071;-80
2023/03/05 10:30:26;;;;;;;5.97;0.38;;;8.70;99.90;;;;;;5020789;28;20042;-82
2023/03/05 10:33:06;;;;;;;4.70;0.30;;;8.70;99.90;;;;;;5020709;28;20053;-81
2023/03/05 10:35:44;;;;;;;2.97;0.40;;;8.60;99.90;;;;;;5029436;28;20739;-81
2023/03/05 10:38:46;;;;;;;6.13;0.57;;;8.70;99.90;;;;;;5027209;28;20086;-80
2023/03/05 10:41:31;;;;;;;4.53;0.63;;;8.80;99.90;;;;;;5032432;28;20045;-82
2023/03/05 10:44:08;;;;;;;11.57;0.82;;;8.70;99.90;;;;;;5015316;28;20098;-82
2023/03/05 10:46:42;;;;;;;7.22;0.70;;;8.60;99.90;;;;;;5023364;28;20052;-83
2023/03/05 10:49:27;;;;;;;3.45;0.47;;;8.40;99.90;;;;;;5023787;28;20040;-82
2023/03/05 10:52:12;;;;;;;3.22;0.38;;;8.20;99.90;;;;;;5029792;28;20126;-84
2023/03/05 10:54:44;;;;;;;3.38;0.30;;;8.00;99.90;;;;;;5024603;28;20128;-82
2023/03/05 10:57:22;;;;;;;2.65;0.40;;;7.60;99.90;;;;;;5026279;28;20673;-81
2023/03/05 10:59:48;;;;;;;4.38;0.32;;;7.30;99.90;;;;;;5023479;28;20040;-81
2023/03/05 11:02:14;;;;;;;5.28;0.73;;;7.60;99.90;;;;;;5036075;28;20080;-82
2023/03/05 11:04:46;;;;;;;2.67;0.28;;;8.10;99.90;;;;;;5020295;28;20055;-82
2023/03/05 11:07:15;;;;;;;3.67;0.30;;;7.90;99.90;;;;;;5019394;28;20044;-81
2023/03/05 11:09:42;;;;;;;3.95;0.30;;;7.50;99.90;;;;;;5019104;28;20140;-80
2023/03/05 11:12:17;;;;;;;3.10;0.30;;;7.00;99.90;;;;;;5047386;28;20048;-81
2023/03/05 11:15:01;;;;;;;2.63;0.38;;;6.70;99.90;;;;;;5020170;28;20057;-82
2023/03/05 11:17:43;;;;;;;5.82;0.73;;;6.90;99.90;;;;;;5021461;28;20049;-81
2023/03/05 11:20:32;;;;;;;1.90;0.40;;;6.90;99.90;;;;;;5019757;28;20041;-81
2023/03/05 11:23:22;;;;;;;5.10;0.40;;;7.70;99.90;;;;;;5021479;28;20041;-81
2023/03/05 11:26:01;;;;;;;4.15;0.80;;;7.00;99.90;;;;;;5020964;28;20045;-81
2023/03/05 11:28:40;;;;;;;2.25;0.30;;;7.00;99.90;;;;;;5037155;28;20132;-81
2023/03/05 11:31:15;;;;;;;5.13;0.93;;;8.60;99.90;;;;;;5020444;28;20064;-80
2023/03/05 11:34:03;;;;;;;6.68;1.17;;;7.70;99.90;;;;;;5041251;28;20044;-81
2023/03/05 11:36:30;;;;;;;3.67;0.50;;;8.30;99.90;;;;;;5035748;28;20041;-81
2023/03/05 11:39:06;;;;;;;2.17;0.55;;;7.90;99.90;;;;;;5022135;28;20044;-82
2023/03/05 11:41:54;;;;;;;3.88;0.55;;;8.40;99.90;;;;;;5022622;28;20044;-81
2023/03/05 11:44:26;;;;;;;4.45;0.63;;;7.50;99.90;;;;;;5021101;28;20040;-81
2023/03/05 11:47:00;;;;;;;12.30;0.70;;;8.40;99.90;;;;;;5024932;28;20036;-81
2023/03/05 11:49:29;;;;;;;3.90;0.50;;;8.50;99.90;;;;;;5016234;28;20052;-81
2023/03/05 11:52:05;;;;;;;3.75;0.55;;;8.90;99.90;;;;;;5012659;28;20049;-80
2023/03/05 11:55:02;;;;;;;1.13;0.38;;;9.50;99.90;;;;;;5012761;28;20037;-80
2023/03/05 11:57:39;;;;;;;5.20;0.40;;;9.00;99.90;;;;;;5018210;28;20029;-80
2023/03/05 12:00:11;;;;;;;3.63;0.50;;;9.00;99.90;;;;;;5010991;28;20060;-80
2023/03/05 12:02:38;;;;;;;4.78;0.40;;;9.20;99.90;;;;;;5012200;28;20091;-81
2023/03/05 12:05:06;;;;;;;5.10;0.50;;;9.20;99.90;;;;;;5022474;28;20053;-80
2023/03/05 12:07:38;;;;;;;4.20;0.60;;;9.20;99.90;;;;;;5013837;28;20130;-80
2023/03/05 12:10:05;;;;;;;2.78;0.55;;;8.90;99.90;;;;;;5036802;28;20054;-78
2023/03/05 12:12:50;;;;;;;3.15;0.63;;;9.00;99.90;;;;;;5022824;28;20057;-79
2023/03/05 12:15:31;;;;;;;5.50;0.60;;;8.90;99.90;;;;;;5037020;28;20141;-79
2023/03/05 12:18:15;;;;;;;5.30;0.95;;;9.00;99.90;;;;;;5018929;28;20045;-78
2023/03/05 12:21:06;;;;;;;5.38;0.63;;;9.20;99.90;;;;;;5021329;28;20136;-79
2023/03/05 12:24:36;;;;;;;6.00;0.75;;;9.30;99.90;;;;;;5021557;28;20046;-80
2023/03/05 12:27:02;;;;;;;4.40;0.73;;;9.40;99.90;;;;;;4966256;28;20409;-78
2023/03/05 12:29:39;;;;;;;2.08;0.52;;;9.80;99.90;;;;;;5019487;28;20037;-79
2023/03/05 12:32:32;;;;;;;4.03;0.60;;;10.10;99.90;;;;;;5022273;28;20080;-79
2023/03/05 12:35:21;;;;;;;4.10;0.32;;;9.10;99.90;;;;;;5022703;28;20037;-80
2023/03/05 12:37:50;;;;;;;2.45;0.30;;;8.80;99.90;;;;;;5024438;28;20568;-79
2023/03/05 12:40:18;;;;;;;4.63;1.08;;;9.00;99.90;;;;;;5032323;28;20049;-80
2023/03/05 12:42:53;;;;;;;4.47;0.52;;;8.40;99.90;;;;;;5021192;28;20052;-79
2023/03/05 12:45:27;;;;;;;3.38;0.40;;;8.30;99.90;;;;;;5017966;28;20056;-79
2023/03/05 12:47:55;;;;;;;3.70;0.35;;;8.40;99.90;;;;;;5018034;28;20057;-80
2023/03/05 12:50:27;;;;;;;4.53;0.43;;;8.40;99.90;;;;;;5037434;28;20041;-79
2023/03/05 12:53:10;;;;;;;2.60;0.30;;;8.70;99.90;;;;;;5024817;28;20128;-79
2023/03/05 12:55:39;;;;;;;3.33;0.35;;;8.80;99.90;;;;;;5022525;28;20049;-79
2023/03/05 12:58:30;;;;;;;2.97;0.45;;;9.10;99.90;;;;;;5023950;28;20092;-79
2023/03/05 13:01:06;;;;;;;6.68;0.40;;;9.10;99.90;;;;;;5037422;28;20053;-79
2023/03/05 13:03:43;;;;;;;4.30;0.30;;;9.20;99.90;;;;;;5042786;28;20064;-79
2023/03/05 13:06:24;;;;;;;3.05;0.98;;;9.40;99.90;;;;;;5040231;28;20034;-79
2023/03/05 13:08:59;;;;;;;4.53;0.98;;;9.40;99.90;;;;;;5027773;28;20401;-79
2023/03/05 13:11:27;;;;;;;2.80;0.45;;;8.80;99.90;;;;;;5021365;28;20047;-79
2023/03/05 13:13:54;;;;;;;4.30;1.10;;;8.80;99.90;;;;;;5049749;28;20088;-78
2023/03/05 13:16:37;;;;;;;2.35;0.30;;;8.70;99.90;;;;;;5023229;28;20044;-80
2023/03/05 13:19:12;;;;;;;3.75;0.60;;;9.00;99.90;;;;;;5030916;28;20072;-80
2023/03/05 13:21:38;;;;;;;5.88;1.05;;;8.80;99.90;;;;;;5047321;28;20053;-80
2023/03/05 13:24:18;;;;;;;3.55;0.70;;;9.70;99.90;;;;;;5030354;28;20085;-79
2023/03/05 13:26:44;;;;;;;2.78;0.40;;;8.50;99.90;;;;;;5032701;28;20496;-80
2023/03/05 13:29:27;;;;;;;2.78;0.50;;;8.40;99.90;;;;;;5029472;28;20262;-79
2023/03/05 13:32:02;;;;;;;5.07;0.47;;;8.40;99.90;;;;;;5024491;28;20041;-78
2023/03/05 13:34:32;;;;;;;6.33;1.07;;;8.30;99.90;;;;;;5021345;28;20052;-79
2023/03/05 13:37:06;;;;;;;1.17;0.20;;;8.20;99.90;;;;;;5022030;28;20040;-80
2023/03/05 13:39:42;;;;;;;4.60;0.30;;;8.20;99.90;;;;;;5025395;28;20040;-81
2023/03/05 13:42:21;;;;;;;3.33;0.40;;;8.70;99.90;;;;;;5024173;28;20050;-79
2023/03/05 13:44:58;;;;;;;4.25;0.40;;;8.10;99.90;;;;;;5019520;28;20129;-80
2023/03/05 13:47:27;;;;;;;2.83;0.47;;;8.50;99.90;;;;;;5027712;28;20120;-79
2023/03/05 13:50:03;;;;;;;6.00;1.50;;;8.00;99.90;;;;;;5045600;28;20113;-80
2023/03/05 13:52:37;;;;;;;4.28;0.88;;;7.40;99.90;;;;;;5032109;28;20040;-78
2023/03/05 13:55:12;;;;;;;4.65;0.70;;;8.00;99.90;;;;;;5021457;28;20133;-78
2023/03/05 13:57:41;;;;;;;7.57;0.70;;;8.00;99.90;;;;;;5022665;28;20041;-78
2023/03/05 14:00:31;;;;;;;2.65;0.25;;;8.00;99.90;;;;;;5021971;28;20049;-79
2023/03/05 14:03:01;;;;;;;4.55;0.88;;;7.90;99.90;;;;;;5009572;28;20080;-80
2023/03/05 14:05:29;;;;;;;2.13;0.30;;;8.10;99.90;;;;;;5018925;28;20052;-79
2023/03/05 14:07:55;;;;;;;3.75;0.65;;;8.10;99.90;;;;;;5007424;28;20053;-79
2023/03/05 14:10:33;;;;;;;5.38;0.65;;;8.50;99.90;;;;;;5012964;28;20071;-80
2023/03/05 14:13:02;;;;;;;5.05;0.77;;;7.80;99.90;;;;;;5011818;28;20568;-81
2023/03/05 14:15:31;;;;;;;2.28;0.30;;;8.00;99.90;;;;;;5008292;28;20037;-79
2023/03/05 14:18:12;;;;;;;2.38;0.47;;;7.70;99.90;;;;;;5008840;28;20076;-78
2023/03/05 14:20:58;;;;;;;6.57;0.40;;;7.70;99.90;;;;;;5006047;28;20045;-78
2023/03/05 14:23:25;;;;;;;3.25;0.35;;;8.10;99.90;;;;;;5010834;28;20060;-78
2023/03/05 14:25:52;;;;;;;5.03;0.57;;;7.60;99.90;;;;;;5008064;28;20052;-80
2023/03/05 14:28:18;;;;;;;4.68;0.40;;;7.80;99.90;;;;;;5011777;28;20053;-78
2023/03/05 14:30:48;;;;;;;5.22;0.63;;;7.40;99.90;;;;;;5028594;28;20036;-78
2023/03/05 14:33:19;;;;;;;4.70;0.70;;;7.30;99.90;;;;;;5020635;28;20049;-80
2023/03/05 14:35:48;;;;;;;4.15;0.75;;;8.20;99.90;;;;;;5023999;28;20041;-81
2023/03/05 14:38:24;;;;;;;5.03;0.47;;;7.20;99.90;;;;;;5027258;28;20780;-81
2023/03/05 14:40:49;;;;;;;4.05;0.45;;;7.90;99.90;;;;;;5012262;28;20050;-78
2023/03/05 14:43:15;;;;;;;3.78;0.82;;;7.10;99.90;;;;;;5006108;28;20080;-78
2023/03/05 14:45:43;;;;;;;2.92;0.47;;;7.20;99.90;;;;;;5030773;28;20059;-79
2023/03/05 14:48:11;;;;;;;4.55;0.80;;;7.40;99.90;;;;;;5009730;28;20112;-81
2023/03/05 14:50:45;;;;;;;5.80;0.68;;;7.20;99.90;;;;;;5014328;28;20033;-79
2023/03/05 14:53:21;;;;;;;7.57;0.70;;;7.20;99.90;;;;;;5032373;28;20067;-80
2023/03/05 14:55:52;;;;;;;3.08;0.40;;;7.10;99.90;;;;;;5033369;28;20060;-79
2023/03/05 14:58:20;;;;;;;3.70;0.32;;;7.30;99.90;;;;;;5014373;28;20053;-79
2023/03/05 15:00:48;;;;;;;3.40;0.68;;;7.20;99.90;;;;;;5011836;28;20048;-79
2023/03/05 15:03:16;;;;;;;5.13;0.40;;;7.40;99.90;;;;;;5026670;28;20076;-79
2023/03/05 15:05:44;;;;;;;2.75;0.50;;;7.20;99.90;;;;;;5011223;28;20045;-79
2023/03/05 15:08:17;;;;;;;3.50;0.90;;;7.00;99.90;;;;;;5010169;28;20045;-78
2023/03/05 15:10:43;;;;;;;5.50;0.70;;;7.10;99.90;;;;;;5014231;28;20056;-80
2023/03/05 15:13:10;;;;;;;2.90;0.85;;;6.90;99.90;;;;;;5011147;28;20143;-79
2023/03/05 15:15:37;;;;;;;5.22;1.83;;;7.20;99.90;;;;;;5007168;28;20048;-76
2023/03/05 15:18:03;;;;;;;2.60;0.40;;;7.00;99.90;;;;;;5029664;28;20082;-80
2023/03/05 15:20:31;;;;;;;3.15;0.40;;;7.20;99.90;;;;;;5012274;28;20124;-78
2023/03/05 15:22:57;;;;;;;2.65;0.28;;;7.10;99.90;;;;;;5005985;28;20037;-79
2023/03/05 15:25:27;;;;;;;8.35;0.77;;;7.10;99.90;;;;;;5008941;28;20046;-79
2023/03/05 15:27:53;;;;;;;4.45;0.45;;;7.00;99.90;;;;;;5014522;28;20128;-79
2023/03/05 15:30:29;;;;;;;4.18;0.45;;;7.40;99.90;;;;;;5009309;28;20036;-77
2023/03/05 15:32:56;;;;;;;6.75;1.48;;;7.00;99.90;;;;;;5009626;28;20045;-79
2023/03/05 15:35:23;;;;;;;3.75;0.45;;;7.40;99.90;;;;;;5007591;28;20040;-79
2023/03/05 15:37:49;;;;;;;4.72;0.40;;;7.10;99.90;;;;;;5009741;28;20044;-77
2023/03/05 15:40:14;;;;;;;4.95;0.68;;;7.00;99.90;;;;;;5011009;28;20182;-80
2023/03/05 15:42:40;;;;;;;4.25;0.80;;;7.00;99.90;;;;;;5014323;28;20124;-82
2023/03/05 15:45:06;;;;;;;2.90;0.40;;;7.10;99.90;;;;;;5006036;28;20068;-78
2023/03/05 15:47:32;;;;;;;4.15;1.13;;;7.10;99.90;;;;;;5018819;28;20044;-79
2023/03/05 15:49:57;;;;;;;2.80;0.30;;;8.00;99.90;;;;;;5008527;28;20051;-79
2023/03/05 15:52:23;;;;;;;3.33;0.40;;;7.30;99.90;;;;;;5003791;28;20045;-79
2023/03/05 15:54:49;;;;;;;2.80;0.22;;;7.80;99.90;;;;;;5007965;28;20037;-79
2023/03/05 15:57:15;;;;;;;3.33;0.50;;;7.90;99.90;;;;;;5023494;28;20670;-79
2023/03/05 15:59:41;;;;;;;4.85;0.50;;;7.10;99.90;;;;;;5007996;28;20115;-79
2023/03/05 16:02:06;;;;;;;1.27;0.40;;;7.10;99.90;;;;;;5008799;28;20527;-79
2023/03/05 16:04:32;;;;;;;2.28;0.50;;;7.30;99.90;;;;;;5009880;28;20048;-79
2023/03/05 16:07:02;;;;;;;2.80;0.30;;;7.30;99.90;;;;;;5011800;28;20124;-80
2023/03/05 16:09:36;;;;;;;3.88;0.50;;;6.90;99.90;;;;;;5013229;28;20102;-79
2023/03/05 16:12:06;;;;;;;4.85;0.70;;;7.40;99.90;;;;;;5028122;28;20772;-79
2023/03/05 16:14:32;;;;;;;3.60;0.40;;;6.90;99.90;;;;;;5011011;28;20075;-79
2023/03/05 16:16:59;;;;;;;5.18;0.63;;;7.00;99.90;;;;;;5014524;28;20199;-79
2023/03/05 16:19:26;;;;;;;8.55;1.75;;;7.10;99.90;;;;;;5003121;28;21712;-79
2023/03/05 16:21:52;;;;;;;3.97;0.43;;;6.80;99.90;;;;;;5004890;28;20049;-79
2023/03/05 16:24:17;;;;;;;3.97;0.60;;;6.80;99.90;;;;;;5021547;28;20132;-79
2023/03/05 16:26:43;;;;;;;5.63;0.40;;;6.70;99.90;;;;;;5006253;28;20041;-79
2023/03/05 16:29:10;;;;;;;3.13;0.40;;;7.10;99.90;;;;;;5002246;28;20041;-80
2023/03/05 16:31:37;;;;;;;5.07;0.70;;;7.40;99.90;;;;;;5031126;28;20032;-78
2023/03/05 16:34:03;;;;;;;2.97;0.40;;;6.40;99.90;;;;;;5003257;28;21653;-79
2023/03/05 16:36:30;;;;;;;3.65;0.50;;;6.50;99.90;;;;;;5042059;28;20041;-79
2023/03/05 16:38:58;;;;;;;6.22;0.80;;;6.40;99.90;;;;;;5006452;28;20052;-79
2023/03/05 16:41:25;;;;;;;5.55;0.40;;;7.10;99.90;;;;;;5002689;28;20049;-76
2023/03/05 16:43:55;;;;;;;6.15;0.60;;;6.20;99.90;;;;;;5021348;28;20044;-78
2023/03/05 16:46:22;;;;;;;4.55;0.65;;;6.20;99.90;;;;;;5003815;28;20132;-74
2023/03/05 16:48:48;;;;;;;4.90;0.50;;;6.30;99.90;;;;;;5006224;28;20104;-79
2023/03/05 16:51:14;;;;;;;4.45;1.23;;;6.00;99.90;;;;;;5007141;28;20555;-80
2023/03/05 16:53:40;;;;;;;4.57;0.57;;;6.00;99.90;;;;;;5004545;28;20049;-81
2023/03/05 16:56:07;;;;;;;3.70;1.33;;;6.00;99.90;;;;;;5006133;28;20045;-81
2023/03/05 16:58:34;;;;;;;6.40;0.95;;;5.90;99.90;;;;;;5021926;28;20074;-80
2023/03/05 17:01:00;;;;;;;5.07;0.50;;;5.80;99.90;;;;;;5010356;28;20583;-79
2023/03/05 17:03:27;;;;;;;2.72;0.47;;;6.00;99.90;;;;;;5010408;28;20053;-79
2023/03/05 17:05:53;;;;;;;6.05;0.88;;;5.90;99.90;;;;;;5026687;28;20067;-81
2023/03/05 17:08:19;;;;;;;4.28;0.50;;;5.70;99.90;;;;;;5034918;28;20047;-79
2023/03/05 17:10:45;;;;;;;4.95;0.40;;;5.70;99.90;;;;;;5032500;28;20037;-81
2023/03/05 17:13:11;;;;;;;3.15;0.50;;;5.90;99.90;;;;;;5015537;28;20041;-80
2023/03/05 17:15:36;;;;;;;7.18;0.68;;;5.90;99.90;;;;;;5015131;28;20041;-80
2023/03/05 17:18:02;;;;;;;4.05;0.65;;;5.80;99.90;;;;;;5016401;28;20048;-80
2023/03/05 17:20:28;;;;;;;4.13;1.55;;;5.60;99.90;;;;;;5015598;28;20127;-80
2023/03/05 17:22:54;;;;;;;3.05;0.68;;;5.80;99.90;;;;;;5025270;28;20037;-80
2023/03/05 17:25:20;;;;;;;4.07;0.65;;;5.40;99.90;;;;;;5018902;28;20076;-79
2023/03/05 17:27:47;;;;;;;6.47;1.35;;;5.90;99.90;;;;;;5020312;28;20128;-80
2023/03/05 17:30:14;;;;;;;6.43;0.57;;;5.30;99.90;;;;;;5012847;28;20128;-79
2023/03/05 17:32:42;;;;;;;4.80;0.70;;;5.10;99.90;;;;;;5029065;28;20037;-80
2023/03/05 17:35:26;;;;;;;2.45;0.65;;;5.40;99.90;;;;;;5016434;28;20121;-78
2023/03/05 17:37:54;;;;;;;4.47;0.65;;;5.70;99.90;;;;;;5033928;28;20037;-75
2023/03/05 17:40:23;;;;;;;5.68;0.43;;;5.10;99.90;;;;;;5027487;28;20052;-80
2023/03/05 17:42:49;;;;;;;2.95;0.38;;;5.60;99.90;;;;;;5005126;28;20041;-83
2023/03/05 17:45:15;;;;;;;4.93;0.50;;;5.20;99.90;;;;;;5018330;28;20167;-80
2023/03/05 17:47:41;;;;;;;4.65;0.50;;;4.90;99.90;;;;;;4996197;28;20044;-81
2023/03/05 17:50:08;;;;;;;3.30;0.40;;;5.50;99.90;;;;;;5021355;28;20045;-81
2023/03/05 17:52:38;;;;;;;3.60;0.38;;;4.80;99.90;;;;;;5018202;28;20055;-82
2023/03/05 17:55:07;;;;;;;7.40;0.52;;;5.70;99.90;;;;;;5000942;28;20160;-81
2023/03/05 17:57:35;;;;;;;1.65;0.40;;;4.60;99.90;;;;;;5010321;28;20041;-80
2023/03/05 18:00:01;;;;;;;6.75;0.85;;;4.60;99.90;;;;;;5006655;28;20052;-80
2023/03/05 18:02:32;;;;;;;9.93;0.95;;;5.50;99.90;;;;;;5025190;28;20056;-80
2023/03/05 18:05:41;;;;;;;1.70;0.50;;;4.60;99.90;;;;;;5038512;28;20049;-79
2023/03/05 18:08:07;;;;;;;3.67;0.60;;;4.40;99.90;;;;;;5024702;28;20083;-81
2023/03/05 18:10:33;;;;;;;3.63;0.73;;;4.40;99.90;;;;;;5005157;28;20140;-80
2023/03/05 18:12:59;;;;;;;5.75;0.50;;;4.30;99.90;;;;;;5005496;28;20179;-81
2023/03/05 18:15:26;;;;;;;4.38;1.27;;;4.80;99.90;;;;;;4998936;28;20134;-80
2023/03/05 18:17:52;;;;;;;5.32;0.80;;;5.10;99.90;;;;;;5006004;28;20088;-78
2023/03/05 18:20:35;;;;;;;4.00;0.50;;;4.60;99.90;;;;;;5029361;28;20042;-78
2023/03/05 18:23:03;;;;;;;4.38;0.95;;;4.10;99.90;;;;;;5014258;28;20041;-82
2023/03/05 18:25:34;;;;;;;6.03;0.57;;;4.70;99.90;;;;;;5015023;28;20049;-80
2023/03/05 18:28:06;;;;;;;5.10;1.10;;;4.00;99.90;;;;;;5005966;28;20506;-81
2023/03/05 18:30:32;;;;;;;3.42;0.75;;;4.00;99.90;;;;;;5006255;28;20433;-80
2023/03/05 18:33:16;;;;;;;3.17;0.70;;;3.90;99.90;;;;;;5009660;28;20560;-81
2023/03/05 18:35:47;;;;;;;7.10;0.75;;;3.80;99.90;;;;;;5008052;28;20041;-80
2023/03/05 18:38:13;;;;;;;4.05;0.65;;;3.80;99.90;;;;;;5007342;28;20043;-82
2023/03/05 18:40:42;;;;;;;5.70;1.10;;;2.90;99.90;;;;;;5009424;28;20584;-83
2023/03/05 18:43:09;;;;;;;3.78;0.65;;;3.70;99.90;;;;;;5018373;28;20068;-80
2023/03/05 18:45:37;;;;;;;9.73;1.23;;;3.60;99.90;;;;;;5006535;28;20079;-81
2023/03/05 18:48:06;;;;;;;5.28;0.75;;;4.00;99.90;;;;;;5007212;28;20048;-81
2023/03/05 18:50:35;;;;;;;4.18;0.65;;;3.60;99.90;;;;;;5005242;28;20222;-81
2023/03/05 18:53:00;;;;;;;5.72;0.82;;;3.60;99.90;;;;;;5006614;28;20047;-81
2023/03/05 18:55:28;;;;;;;5.88;0.90;;;3.80;99.90;;;;;;5013112;28;20069;-81
2023/03/05 18:57:54;;;;;;;3.97;0.68;;;3.80;99.90;;;;;;5038669;28;20033;-78
2023/03/05 19:00:27;;;;;;;8.55;1.10;;;3.40;99.90;;;;;;5024523;28;20040;-80
2023/03/05 19:02:54;;;;;;;1.63;0.57;;;3.30;99.90;;;;;;5028649;28;20060;-80
2023/03/05 19:05:20;;;;;;;4.28;0.60;;;3.80;99.90;;;;;;5014680;28;20208;-80
2023/03/05 19:07:46;;;;;;;5.82;0.82;;;3.30;99.90;;;;;;5007112;28;20087;-80
2023/03/05 19:10:15;;;;;;;5.47;0.70;;;3.30;99.90;;;;;;5007114;28;20075;-80
2023/03/05 19:12:48;;;;;;;9.48;1.33;;;3.30;99.90;;;;;;5007267;28;20044;-80
2023/03/05 19:15:14;;;;;;;5.75;0.77;;;3.90;99.90;;;;;;5007741;28;20068;-80
2023/03/05 19:17:40;;;;;;;8.23;1.40;;;3.20;99.90;;;;;;5022005;28;22284;-80